sensor_id;sensor_type;location;lat;lon;timestamp;P1;P2;P0
78999;PMS7003;68406;53.914;27.416;2023-06-22T00:02:22;15.5;14;10.5
78999;PMS7003;68406;53.914;27.416;2023-06-22T00:07:34;15.1;13.9;10.2
78999;PMS7003;68406;53.914;27.416;2023-06-22T00:12:00;15.2;12.8;9.8
78999;PMS7003;68406;53.914;27.416;2023-06-22T00:17:28;14.8;13;9.7
78999;PMS7003;68406;53.914;27.416;2023-06-22T00:22:06;14.7;12.7;9.6
78999;PMS7003;68406;53.914;27.416;2023-06-22T00:26:58;15.4;13.7;10.1
78999;PMS7003;68406;53.914;27.416;2023-06-22T00:31:58;15.5;13.8;10.1
78999;PMS7003;68406;53.914;27.416;2023-06-22T00:37:32;14.8;13.6;10.2
78999;PMS7003;68406;53.914;27.416;2023-06-22T00:42:14;16.7;14.5;10.7
78999;PMS7003;68406;53.914;27.416;2023-06-22T00:47:28;15.6;14;10.3
78999;PMS7003;68406;53.914;27.416;2023-06-22T00:52:42;15.8;14.5;10.8
78999;PMS7003;68406;53.914;27.416;2023-06-22T00:57:34;16.9;15.4;11.5
78999;PMS7003;68406;53.914;27.416;2023-06-22T01:01:58;15.9;14.2;10.7
78999;PMS7003;68406;53.914;27.416;2023-06-22T01:07:34;17.8;14.8;10.7
78999;PMS7003;68406;53.914;27.416;2023-06-22T01:12:44;16.8;14.7;10.9
78999;PMS7003;68406;53.914;27.416;2023-06-22T01:17:40;17;14.3;10.8
78999;PMS7003;68406;53.914;27.416;2023-06-22T01:22:49;17.8;15.6;11.3
78999;PMS7003;68406;53.914;27.416;2023-06-22T01:27:47;17.9;16.2;11.8
78999;PMS7003;68406;53.914;27.416;2023-06-22T01:32:08;17;15.6;11.7
78999;PMS7003;68406;53.914;27.416;2023-06-22T01:37:08;18.2;16.2;11.9
78999;PMS7003;68406;53.914;27.416;2023-06-22T01:42:10;19;16.7;12.1
78999;PMS7003;68406;53.914;27.416;2023-06-22T01:47:46;18;16.5;12.4
78999;PMS7003;68406;53.914;27.416;2023-06-22T01:52:34;19.9;17.5;12.7
78999;PMS7003;68406;53.914;27.416;2023-06-22T01:57:36;18.3;17.2;12
78999;PMS7003;68406;53.914;27.416;2023-06-22T02:02:10;18.2;17;12.5
78999;PMS7003;68406;53.914;27.416;2023-06-22T02:06:58;18.7;16.6;12.2
78999;PMS7003;68406;53.914;27.416;2023-06-22T02:11:58;21;18.4;13.3
78999;PMS7003;68406;53.914;27.416;2023-06-22T02:17:12;20.9;18.4;13.5
78999;PMS7003;68406;53.914;27.416;2023-06-22T02:22:46;21.6;19.4;14
78999;PMS7003;68406;53.914;27.416;2023-06-22T02:27:10;21.4;19.1;13.7
78999;PMS7003;68406;53.914;27.416;2023-06-22T02:32:34;21.4;19;13.6
78999;PMS7003;68406;53.914;27.416;2023-06-22T02:37:08;20.4;18.8;13.6
78999;PMS7003;68406;53.914;27.416;2023-06-22T02:41:58;21.2;19.2;14
78999;PMS7003;68406;53.914;27.416;2023-06-22T02:47:44;21.2;19.5;13.9
78999;PMS7003;68406;53.914;27.416;2023-06-22T02:52:12;19.6;17.7;13.2
78999;PMS7003;68406;53.914;27.416;2023-06-22T02:57:30;21.5;19.8;14.6
78999;PMS7003;68406;53.914;27.416;2023-06-22T03:02:20;22.2;19.4;14
78999;PMS7003;68406;53.914;27.416;2023-06-22T03:07:46;21;19.6;14.3
78999;PMS7003;68406;53.914;27.416;2023-06-22T03:11:58;21.8;19.8;14.6
78999;PMS7003;68406;53.914;27.416;2023-06-22T03:16:58;23;20.5;14.6
78999;PMS7003;68406;53.914;27.416;2023-06-22T03:22:46;22.5;20.2;14.5
78999;PMS7003;68406;53.914;27.416;2023-06-22T03:27:24;22.6;20.5;14
78999;PMS7003;68406;53.914;27.416;2023-06-22T03:32:18;22.6;20.5;14.9
78999;PMS7003;68406;53.914;27.416;2023-06-22T03:37:20;21.7;20.2;14.4
78999;PMS7003;68406;53.914;27.416;2023-06-22T03:42:46;21.7;19.7;14.4
78999;PMS7003;68406;53.914;27.416;2023-06-22T03:46:58;23;20.8;15
78999;PMS7003;68406;53.914;27.416;2023-06-22T03:52:08;22.9;21.1;15.2
78999;PMS7003;68406;53.914;27.416;2023-06-22T03:57:44;24.8;21.8;15.7
78999;PMS7003;68406;53.914;27.416;2023-06-22T04:02:20;23;21;14.9
78999;PMS7003;68406;53.914;27.416;2023-06-22T04:07:08;23.2;21.4;15.2
78999;PMS7003;68406;53.914;27.416;2023-06-22T04:12:20;23.6;21.1;14.8
78999;PMS7003;68406;53.914;27.416;2023-06-22T04:17:28;23.5;21.7;15.3
78999;PMS7003;68406;53.914;27.416;2023-06-22T04:22:12;24.4;22.6;16.1
78999;PMS7003;68406;53.914;27.416;2023-06-22T04:27:20;25.1;22.5;16.1
78999;PMS7003;68406;53.914;27.416;2023-06-22T04:32:44;25.1;22.8;16.3
78999;PMS7003;68406;53.914;27.416;2023-06-22T04:37:28;24.8;23.3;16.2
78999;PMS7003;68406;53.914;27.416;2023-06-22T04:42:08;21.7;20.3;14.8
78999;PMS7003;68406;53.914;27.416;2023-06-22T04:47:20;24;21.9;15.7
78999;PMS7003;68406;53.914;27.416;2023-06-22T04:52:10;25.6;23.1;16.4
78999;PMS7003;68406;53.914;27.416;2023-06-22T04:57:08;24.5;22.6;16.1
78999;PMS7003;68406;53.914;27.416;2023-06-22T05:02:24;23.8;21.4;15.5
78999;PMS7003;68406;53.914;27.416;2023-06-22T05:07:20;23.3;20.9;15.1
78999;PMS7003;68406;53.914;27.416;2023-06-22T05:12:28;20.7;18.8;13.4
78999;PMS7003;68406;53.914;27.416;2023-06-22T05:17:28;20.6;18.8;13.5
78999;PMS7003;68406;53.914;27.416;2023-06-22T05:21:56;22.5;20.2;14.8
78999;PMS7003;68406;53.914;27.416;2023-06-22T05:27:06;25.1;22.3;16
78999;PMS7003;68406;53.914;27.416;2023-06-22T05:31:56;22;20.4;14.6
78999;PMS7003;68406;53.914;27.416;2023-06-22T05:37:42;22.3;20.1;14.5
78999;PMS7003;68406;53.914;27.416;2023-06-22T05:42:14;22.5;19.6;14.1
78999;PMS7003;68406;53.914;27.416;2023-06-22T05:47:18;20.6;19.1;14.1
78999;PMS7003;68406;53.914;27.416;2023-06-22T05:52:44;19.7;18.5;13.9
78999;PMS7003;68406;53.914;27.416;2023-06-22T05:57:34;19.5;18.3;13.6
78999;PMS7003;68406;53.914;27.416;2023-06-22T06:02:18;19.5;17.6;13.2
78999;PMS7003;68406;53.914;27.416;2023-06-22T06:07:32;17.8;16;12
78999;PMS7003;68406;53.914;27.416;2023-06-22T06:12:44;19.5;17.1;13
78999;PMS7003;68406;53.914;27.416;2023-06-22T06:17:45;18.5;16.5;12.3
78999;PMS7003;68406;53.914;27.416;2023-06-22T06:22:44;18.5;16.1;11.7
78999;PMS7003;68406;53.914;27.416;2023-06-22T06:27:44;17.7;16.1;12.2
78999;PMS7003;68406;53.914;27.416;2023-06-22T06:31:56;18.2;16.7;12.8
78999;PMS7003;68406;53.914;27.416;2023-06-22T06:37:20;17.4;15.9;12
78999;PMS7003;68406;53.914;27.416;2023-06-22T06:42:34;17.6;15.9;12.1
78999;PMS7003;68406;53.914;27.416;2023-06-22T06:47:44;16.8;15;11
78999;PMS7003;68406;53.914;27.416;2023-06-22T06:52:30;17.7;16;12.3
78999;PMS7003;68406;53.914;27.416;2023-06-22T06:57:32;15.9;14.2;11.2
78999;PMS7003;68406;53.914;27.416;2023-06-22T07:02:42;16.6;14.3;11
78999;PMS7003;68406;53.914;27.416;2023-06-22T07:06:56;15.9;14.8;11.7
78999;PMS7003;68406;53.914;27.416;2023-06-22T07:11:56;16.9;15.5;11.7
78999;PMS7003;68406;53.914;27.416;2023-06-22T07:16:56;17.4;15.9;11.6
78999;PMS7003;68406;53.914;27.416;2023-06-22T07:22:40;17.8;16.5;12.1
78999;PMS7003;68406;53.914;27.416;2023-06-22T07:27:30;17.2;15.6;11.8
78999;PMS7003;68406;53.914;27.416;2023-06-22T07:32:42;16.3;15;11.5
78999;PMS7003;68406;53.914;27.416;2023-06-22T07:36:56;14.8;13.7;10.9
78999;PMS7003;68406;53.914;27.416;2023-06-22T07:42:16;16.3;15.3;11.3
78999;PMS7003;68406;53.914;27.416;2023-06-22T07:47:28;15.7;14.4;11.2
78999;PMS7003;68406;53.914;27.416;2023-06-22T07:52:06;16.3;15;11
78999;PMS7003;68406;53.914;27.416;2023-06-22T07:57:16;16.7;15.7;11.5
78999;PMS7003;68406;53.914;27.416;2023-06-22T08:02:16;16.7;14.9;11.5
78999;PMS7003;68406;53.914;27.416;2023-06-22T08:07:42;16;14.6;11.4
78999;PMS7003;68406;53.914;27.416;2023-06-22T08:12:08;15;13.6;10.5
78999;PMS7003;68406;53.914;27.416;2023-06-22T08:16:58;15;13.4;10.6
78999;PMS7003;68406;53.914;27.416;2023-06-22T08:22:42;15.6;13.8;10.4
78999;PMS7003;68406;53.914;27.416;2023-06-22T08:27:30;15.4;13.5;10.3
78999;PMS7003;68406;53.914;27.416;2023-06-22T08:32:14;14.4;13.2;10.2
78999;PMS7003;68406;53.914;27.416;2023-06-22T08:37:17;15.7;14;10.4
78999;PMS7003;68406;53.914;27.416;2023-06-22T08:42:12;15.4;14.4;11.1
78999;PMS7003;68406;53.914;27.416;2023-06-22T08:47:08;15.8;14.4;11.2
78999;PMS7003;68406;53.914;27.416;2023-06-22T08:52:10;16.4;15.3;11.8
78999;PMS7003;68406;53.914;27.416;2023-06-22T08:57:44;15.3;13.6;10.3
78999;PMS7003;68406;53.914;27.416;2023-06-22T09:02:26;14.2;13.6;10.6
78999;PMS7003;68406;53.914;27.416;2023-06-22T09:07:14;14.2;13.5;10.3
78999;PMS7003;68406;53.914;27.416;2023-06-22T09:12:20;13.1;12.2;9.7
78999;PMS7003;68406;53.914;27.416;2023-06-22T09:17:28;14;12.4;9.4
78999;PMS7003;68406;53.914;27.416;2023-06-22T09:21:56;13;11.8;8.9
78999;PMS7003;68406;53.914;27.416;2023-06-22T09:27:20;14.7;13.1;9.9
78999;PMS7003;68406;53.914;27.416;2023-06-22T09:32:32;14.3;12.8;9.9
78999;PMS7003;68406;53.914;27.416;2023-06-22T09:37:28;15.3;14;10.7
78999;PMS7003;68406;53.914;27.416;2023-06-22T09:42:28;14.5;14;10.7
78999;PMS7003;68406;53.914;27.416;2023-06-22T09:47:18;15.4;14;10.9
78999;PMS7003;68406;53.914;27.416;2023-06-22T09:51:56;13.9;13;10.1
78999;PMS7003;68406;53.914;27.416;2023-06-22T09:57:06;11.5;10.3;8
78999;PMS7003;68406;53.914;27.416;2023-06-22T10:02:44;12.2;11.4;9
78999;PMS7003;68406;53.914;27.416;2023-06-22T10:07:16;12.6;11.8;9
78999;PMS7003;68406;53.914;27.416;2023-06-22T10:12:28;12.9;12;9.1
78999;PMS7003;68406;53.914;27.416;2023-06-22T10:17:40;12.8;11.3;9.2
78999;PMS7003;68406;53.914;27.416;2023-06-22T10:21:58;13.9;12.7;9.8
78999;PMS7003;68406;53.914;27.416;2023-06-22T10:27:08;12.7;11.7;9
78999;PMS7003;68406;53.914;27.416;2023-06-22T10:32:48;12.6;11.4;8.7
78999;PMS7003;68406;53.914;27.416;2023-06-22T10:37:46;12.3;11.8;8.8
78999;PMS7003;68406;53.914;27.416;2023-06-22T10:42:32;13.9;12.1;9.4
78999;PMS7003;68406;53.914;27.416;2023-06-22T10:47:46;12.8;11.8;9.4
78999;PMS7003;68406;53.914;27.416;2023-06-22T10:52:44;13.5;12.2;9.6
78999;PMS7003;68406;53.914;27.416;2023-06-22T10:56:56;12.8;12.2;9.7
78999;PMS7003;68406;53.914;27.416;2023-06-22T11:02:20;12.1;11.7;9.3
78999;PMS7003;68406;53.914;27.416;2023-06-22T11:07:44;11.3;10.7;8.9
78999;PMS7003;68406;53.914;27.416;2023-06-22T11:12:42;11.1;10.5;8.1
78999;PMS7003;68406;53.914;27.416;2023-06-22T11:17:32;12.3;11.1;9
78999;PMS7003;68406;53.914;27.416;2023-06-22T11:22:34;13.1;12.3;9.7
78999;PMS7003;68406;53.914;27.416;2023-06-22T11:27:44;12.4;11.7;8.9
78999;PMS7003;68406;53.914;27.416;2023-06-22T11:32:05;15.9;13.6;9.9
78999;PMS7003;68406;53.914;27.416;2023-06-22T11:37:06;15.2;12.8;9.8
78999;PMS7003;68406;53.914;27.416;2023-06-22T11:42:42;16.2;13.6;10.3
78999;PMS7003;68406;53.914;27.416;2023-06-22T11:47:29;13.8;12.3;9
78999;PMS7003;68406;53.914;27.416;2023-06-22T11:52:28;16.8;13.4;9.8
78999;PMS7003;68406;53.914;27.416;2023-06-22T11:57:53;12;10.5;8.1
78999;PMS7003;68406;53.914;27.416;2023-06-22T12:02:06;13.2;11.6;8.7
78999;PMS7003;68406;53.914;27.416;2023-06-22T12:07:04;12.2;10.8;8.2
78999;PMS7003;68406;53.914;27.416;2023-06-22T12:12:30;13.4;11.5;8.5
78999;PMS7003;68406;53.914;27.416;2023-06-22T12:17:18;15.4;14.5;10.6
78999;PMS7003;68406;53.914;27.416;2023-06-22T12:22:12;17.5;14.9;11
78999;PMS7003;68406;53.914;27.416;2023-06-22T12:27:16;18;15.8;11.5
78999;PMS7003;68406;53.914;27.416;2023-06-22T12:32:42;17.6;15.4;11.6
78999;PMS7003;68406;53.914;27.416;2023-06-22T12:36:56;16.2;14.2;10.2
78999;PMS7003;68406;53.914;27.416;2023-06-22T12:41:58;18.9;16.7;11.6
78999;PMS7003;68406;53.914;27.416;2023-06-22T12:47:46;19.4;17.8;13
78999;PMS7003;68406;53.914;27.416;2023-06-22T12:52:30;20.3;18.2;13.3
78999;PMS7003;68406;53.914;27.416;2023-06-22T12:56:58;22.3;20.5;14.7
78999;PMS7003;68406;53.914;27.416;2023-06-22T13:02:18;22.6;20.3;14.5
78999;PMS7003;68406;53.914;27.416;2023-06-22T13:07:22;22.1;20.1;13.7
78999;PMS7003;68406;53.914;27.416;2023-06-22T13:11:59;21.5;19.9;14.7
78999;PMS7003;68406;53.914;27.416;2023-06-22T13:17:22;19.2;17.7;12.3
78999;PMS7003;68406;53.914;27.416;2023-06-22T13:22:46;19.9;18.3;13.4
78999;PMS7003;68406;53.914;27.416;2023-06-22T13:27:44;22.3;20.4;14.5
78999;PMS7003;68406;53.914;27.416;2023-06-22T13:32:16;21.8;20.2;14.6
78999;PMS7003;68406;53.914;27.416;2023-06-22T13:37:10;20.9;18.5;13.8
78999;PMS7003;68406;53.914;27.416;2023-06-22T13:41:58;16.4;15.4;11.4
78999;PMS7003;68406;53.914;27.416;2023-06-22T13:46:56;19.3;17;13
78999;PMS7003;68406;53.914;27.416;2023-06-22T13:52:20;18.3;16.5;11.6
78999;PMS7003;68406;53.914;27.416;2023-06-22T13:57:33;18.6;16.9;12.5
78999;PMS7003;68406;53.914;27.416;2023-06-22T14:02:30;18.2;16;11.5
78999;PMS7003;68406;53.914;27.416;2023-06-22T14:07:26;17.9;16.3;11.6
78999;PMS7003;68406;53.914;27.416;2023-06-22T14:12:16;16.2;15.1;11.1
78999;PMS7003;68406;53.914;27.416;2023-06-22T14:16:56;16.9;15.3;11.4
78999;PMS7003;68406;53.914;27.416;2023-06-22T14:21:56;15.5;14.4;10.9
78999;PMS7003;68406;53.914;27.416;2023-06-22T14:27:44;13.9;12.3;9.2
78999;PMS7003;68406;53.914;27.416;2023-06-22T14:31:56;12.8;11.8;9
78999;PMS7003;68406;53.914;27.416;2023-06-22T14:37:30;11.6;10.4;7.6
78999;PMS7003;68406;53.914;27.416;2023-06-22T14:42:46;13.7;12.5;9.9
78999;PMS7003;68406;53.914;27.416;2023-06-22T14:47:34;14.7;13.4;10.2
78999;PMS7003;68406;53.914;27.416;2023-06-22T14:52:10;14;12.6;9.6
78999;PMS7003;68406;53.914;27.416;2023-06-22T14:57:36;16.5;14.8;11
78999;PMS7003;68406;53.914;27.416;2023-06-22T15:02:44;16.1;14.2;11
78999;PMS7003;68406;53.914;27.416;2023-06-22T15:07:46;16.1;14.9;11.4
78999;PMS7003;68406;53.914;27.416;2023-06-22T15:12:46;18.1;16.8;12.9
78999;PMS7003;68406;53.914;27.416;2023-06-22T15:17:46;14.1;13.3;10.1
78999;PMS7003;68406;53.914;27.416;2023-06-22T15:22:14;15.2;14.5;10.8
78999;PMS7003;68406;53.914;27.416;2023-06-22T15:26:58;16;14.7;10.8
78999;PMS7003;68406;53.914;27.416;2023-06-22T15:32:32;16.8;15.6;12
78999;PMS7003;68406;53.914;27.416;2023-06-22T15:37:44;16.2;15.4;11.7
78999;PMS7003;68406;53.914;27.416;2023-06-22T15:42:20;15.5;14.4;10.9
78999;PMS7003;68406;53.914;27.416;2023-06-22T15:47:32;14.7;13.3;10.7
78999;PMS7003;68406;53.914;27.416;2023-06-22T15:52:28;16.1;15.3;11.8
78999;PMS7003;68406;53.914;27.416;2023-06-22T15:56:58;13.7;12.8;10
78999;PMS7003;68406;53.914;27.416;2023-06-22T16:02:07;14.5;12.9;10
78999;PMS7003;68406;53.914;27.416;2023-06-22T16:07:22;15.3;14.5;11.3
78999;PMS7003;68406;53.914;27.416;2023-06-22T16:12:46;13;11.8;8.8
78999;PMS7003;68406;53.914;27.416;2023-06-22T16:17:32;14.7;13.7;10.5
78999;PMS7003;68406;53.914;27.416;2023-06-22T16:22:44;14.4;13.6;10.7
78999;PMS7003;68406;53.914;27.416;2023-06-22T16:26:58;15.6;13.4;10.2
78999;PMS7003;68406;53.914;27.416;2023-06-22T16:32:10;14.6;14;10.5
78999;PMS7003;68406;53.914;27.416;2023-06-22T16:37:30;14.2;13.5;10.3
78999;PMS7003;68406;53.914;27.416;2023-06-22T16:42:22;15;14.1;10.7
78999;PMS7003;68406;53.914;27.416;2023-06-22T16:47:16;14.9;14.1;10.6
78999;PMS7003;68406;53.914;27.416;2023-06-22T16:52:20;15;14;10.1
78999;PMS7003;68406;53.914;27.416;2023-06-22T16:57:47;15;13.8;10.1
78999;PMS7003;68406;53.914;27.416;2023-06-22T17:02:23;15.7;14.5;11.3
78999;PMS7003;68406;53.914;27.416;2023-06-22T17:07:11;18.2;15.8;11.4
78999;PMS7003;68406;53.914;27.416;2023-06-22T17:12:32;17;15.7;11.4
78999;PMS7003;68406;53.914;27.416;2023-06-22T17:17:08;17.8;15.6;11.9
78999;PMS7003;68406;53.914;27.416;2023-06-22T17:22:14;15.6;14.5;11
78999;PMS7003;68406;53.914;27.416;2023-06-22T17:27:08;17.5;15.9;11.6
78999;PMS7003;68406;53.914;27.416;2023-06-22T17:32:30;17.8;16;11.8
78999;PMS7003;68406;53.914;27.416;2023-06-22T17:37:13;17.1;16.2;11.8
78999;PMS7003;68406;53.914;27.416;2023-06-22T17:41:58;15.4;14;10.3
78999;PMS7003;68406;53.914;27.416;2023-06-22T17:47:45;18.1;15.7;11.9
78999;PMS7003;68406;53.914;27.416;2023-06-22T17:52:30;17.8;15.5;11.5
78999;PMS7003;68406;53.914;27.416;2023-06-22T17:57:17;18.9;17.1;12.7
78999;PMS7003;68406;53.914;27.416;2023-06-22T18:02:36;16.1;15.2;11.6
78999;PMS7003;68406;53.914;27.416;2023-06-22T18:07:19;19.6;17.4;12.8
78999;PMS7003;68406;53.914;27.416;2023-06-22T18:11:59;17.1;15.6;11.6
78999;PMS7003;68406;53.914;27.416;2023-06-22T18:16:58;20.6;19;13.5
78999;PMS7003;68406;53.914;27.416;2023-06-22T18:22:34;20.1;18.1;13.1
78999;PMS7003;68406;53.914;27.416;2023-06-22T18:27:28;21.4;19.5;14.2
78999;PMS7003;68406;53.914;27.416;2023-06-22T18:32:29;20.4;18.7;13.6
78999;PMS7003;68406;53.914;27.416;2023-06-22T18:37:19;23.2;21;14.9
78999;PMS7003;68406;53.914;27.416;2023-06-22T18:42:19;22.3;19.8;14.1
78999;PMS7003;68406;53.914;27.416;2023-06-22T18:47:07;24.5;22.4;15.6
78999;PMS7003;68406;53.914;27.416;2023-06-22T18:52:23;26.3;23.2;16.1
78999;PMS7003;68406;53.914;27.416;2023-06-22T18:57:12;24.2;22;15.5
78999;PMS7003;68406;53.914;27.416;2023-06-22T19:02:44;25.4;23.1;16.2
78999;PMS7003;68406;53.914;27.416;2023-06-22T19:08:10;27.8;25.2;17.4
78999;PMS7003;68406;53.914;27.416;2023-06-22T19:12:33;29.2;25.7;17.9
78999;PMS7003;68406;53.914;27.416;2023-06-22T19:17:11;29.4;26.6;18.5
78999;PMS7003;68406;53.914;27.416;2023-06-22T19:23:04;31.9;28.1;19.5
78999;PMS7003;68406;53.914;27.416;2023-06-22T19:27:41;33.2;28.6;19.8
78999;PMS7003;68406;53.914;27.416;2023-06-22T19:32:41;37.1;32;21.6
78999;PMS7003;68406;53.914;27.416;2023-06-22T19:37:41;34.6;30.3;20.6
78999;PMS7003;68406;53.914;27.416;2023-06-22T19:42:41;36.5;30.9;21.1
78999;PMS7003;68406;53.914;27.416;2023-06-22T19:47:07;35.6;30.3;20.2
78999;PMS7003;68406;53.914;27.416;2023-06-22T19:52:07;36;30.6;20.4
78999;PMS7003;68406;53.914;27.416;2023-06-22T19:57:33;37.9;32.1;21
78999;PMS7003;68406;53.914;27.416;2023-06-22T20:02:41;40.1;33.2;22.5
78999;PMS7003;68406;53.914;27.416;2023-06-22T20:07:17;44.9;36.1;24.1
78999;PMS7003;68406;53.914;27.416;2023-06-22T20:12:33;43.1;34.7;23.2
78999;PMS7003;68406;53.914;27.416;2023-06-22T20:17:41;40.7;33.2;21.6
78999;PMS7003;68406;53.914;27.416;2023-06-22T20:22:21;35.6;30.1;20.1
78999;PMS7003;68406;53.914;27.416;2023-06-22T20:27:09;35.5;30.9;21.4
78999;PMS7003;68406;53.914;27.416;2023-06-22T20:32:19;36.2;30.9;21
78999;PMS7003;68406;53.914;27.416;2023-06-22T20:37:35;36;30.7;20.8
78999;PMS7003;68406;53.914;27.416;2023-06-22T20:42:29;35.8;31;20.9
78999;PMS7003;68406;53.914;27.416;2023-06-22T20:47:41;35.8;30.2;20.8
78999;PMS7003;68406;53.914;27.416;2023-06-22T20:52:43;33.4;28.8;19.7
78999;PMS7003;68406;53.914;27.416;2023-06-22T20:57:05;35.5;30;20.1
78999;PMS7003;68406;53.914;27.416;2023-06-22T21:02:29;35;29.9;20.4
78999;PMS7003;68406;53.914;27.416;2023-06-22T21:06:59;33.7;29.3;19.7
78999;PMS7003;68406;53.914;27.416;2023-06-22T21:12:00;34.6;29.7;20.1
78999;PMS7003;68406;53.914;27.416;2023-06-22T21:17:07;33.3;29.2;19.5
78999;PMS7003;68406;53.914;27.416;2023-06-22T21:22:43;32.5;27.4;18.6
78999;PMS7003;68406;53.914;27.416;2023-06-22T21:26:59;30;26.6;18.3
78999;PMS7003;68406;53.914;27.416;2023-06-22T21:31:59;29.8;26.2;17.9
78999;PMS7003;68406;53.914;27.416;2023-06-22T21:37:43;28.2;24.9;16.8
78999;PMS7003;68406;53.914;27.416;2023-06-22T21:42:27;28.7;25.2;17.7
78999;PMS7003;68406;53.914;27.416;2023-06-22T21:46:59;26.1;23.4;16.6
78999;PMS7003;68406;53.914;27.416;2023-06-22T21:51:59;24.5;22;15.2
78999;PMS7003;68406;53.914;27.416;2023-06-22T21:57:29;24.4;21.8;15.5
78999;PMS7003;68406;53.914;27.416;2023-06-22T22:02:17;24.3;22.8;15.7
78999;PMS7003;68406;53.914;27.416;2023-06-22T22:07:07;25.5;22.3;16.3
78999;PMS7003;68406;53.914;27.416;2023-06-22T22:12:43;24.7;22.5;16.1
78999;PMS7003;68406;53.914;27.416;2023-06-22T22:17:29;24.9;21.2;15
78999;PMS7003;68406;53.914;27.416;2023-06-22T22:22:13;25.5;23;16.3
78999;PMS7003;68406;53.914;27.416;2023-06-22T22:27:17;24.6;21.3;15
78999;PMS7003;68406;53.914;27.416;2023-06-22T22:32:17;22.7;20;15.1
78999;PMS7003;68406;53.914;27.416;2023-06-22T22:36:57;23.1;20.6;14.7
78999;PMS7003;68406;53.914;27.416;2023-06-22T22:42:07;22.7;20.2;14.3
78999;PMS7003;68406;53.914;27.416;2023-06-22T22:47:33;22.4;20.6;14.4
78999;PMS7003;68406;53.914;27.416;2023-06-22T22:52:21;23.4;21.1;15.6
78999;PMS7003;68406;53.914;27.416;2023-06-22T22:57:29;23.1;21.3;15.2
78999;PMS7003;68406;53.914;27.416;2023-06-22T23:02:19;22.1;20.3;14.9
78999;PMS7003;68406;53.914;27.416;2023-06-22T23:06:59;24;21.3;15.1
78999;PMS7003;68406;53.914;27.416;2023-06-22T23:11:57;23.5;20.5;14.7
78999;PMS7003;68406;53.914;27.416;2023-06-22T23:17:41;22.7;21;15.2
78999;PMS7003;68406;53.914;27.416;2023-06-22T23:22:15;24;21.8;15
78999;PMS7003;68406;53.914;27.416;2023-06-22T23:27:19;22.8;20.7;15.2
78999;PMS7003;68406;53.914;27.416;2023-06-22T23:32:41;23.6;21.3;14.8
78999;PMS7003;68406;53.914;27.416;2023-06-22T23:37:31;22.9;20.3;14.2
78999;PMS7003;68406;53.914;27.416;2023-06-22T23:42:15;22.3;20.3;14.3
78999;PMS7003;68406;53.914;27.416;2023-06-22T23:47:33;22;19.8;14.2
78999;PMS7003;68406;53.914;27.416;2023-06-22T23:52:41;21.5;19.3;13.3
78999;PMS7003;68406;53.914;27.416;2023-06-22T23:57:41;19.9;18.7;13.4
